Nearby METAR Reports

 

CWGT - Sisters Island (Auto)
Distance from station: NE 39km
Updated: 2022-10-05 17:00

 Wind from WNW
Wind: WNW 7 km/h
Temperature: 18°C
Dew Point: 14°C
Humidity: 78%
2022/10/06 00:00 CWGT 060000Z AUTO 30004KT 18/14 RMK AO1 SLP224 T01770143 56013
CWGB - Ballenas Island (Auto)
Distance from station: ENE 47km
Updated: 2022-10-05 17:00

 Wind from W
Wind: W 20 km/h
Temperature: 16°C
2022/10/06 00:00 CWGB 060000Z AUTO 26011KT 16/ RMK AO1 SLP215 T0156 56011
CYQQ - CFB Comox
Distance from station: N 55km
Updated: 2022-10-05 17:00
Few Clouds
Few Clouds
 Wind from NNW
Wind: NNW 6 km/h
Temperature: 20°C
Dew Point: 12°C
Humidity: 60%
Barometer: 1022 hPa
Clouds: Few Clouds
Visibility: 32 km
Cloud details: Few Clouds 914 m
Few Clouds 7620 m
2022/10/06 00:00 CYQQ 060000Z 34003KT 20SM FEW030 FEW250 20/12 A3018 RMK CU1CI2 SLP220
 
CYPW - Powell River Airport
Distance from station: NNE 69km
Updated: 2022-10-05 17:00
Few Clouds
Few Clouds
 Wind from W
Wind: W 13 km/h
Temperature: 18°C
Dew Point: 13°C
Humidity: 73%
Barometer: 1022 hPa
Clouds: Few Clouds
Visibility: 32 km
Cloud details: Few Clouds 671 m
Few Clouds 7315 m
2022/10/06 00:00 CYPW 060000Z 28007KT 20SM FEW022 FEW240 18/13 A3018 RMK CU1CS1 CU TR CS TR CONTRAILS HZ DIST W SLP224 DENSITY ALT 600FT
CYCD - Nanaimo Airport
Distance from station: ESE 70km
Updated: 2022-10-05 17:00
Partly cloudy
Partly cloudy
 Wind from varies
Wind: varies 4 km/h
Temperature: 21°C
Dew Point: 13°C
Humidity: 60%
Barometer: 1021.7 hPa
Clouds: Partly cloudy
Visibility: 40 km
Cloud details: Partly cloudy 7620 m
2022/10/06 00:00 CYCD 060000Z VRB02KT 25SM SCT250 21/13 A3017 RMK CI3 SLP217 DENSITY ALT 600FT
CYAZ - Tofino Airport
Distance from station: WSW 73km
Updated: 2022-10-05 17:00
Partly cloudy
Partly cloudy
 Wind from W
Wind: W 9 km/h
Temperature: 18°C
Dew Point: 15°C
Humidity: 83%
Barometer: 1021.7 hPa
Clouds: Partly cloudy
Visibility: 24 km
Cloud details: Few Clouds 610 m
Few Clouds 2743 m
Partly cloudy 7620 m
2022/10/06 00:00 CYAZ 060000Z 27005KT 15SM FEW020 FEW090 SCT250 18/15 A3017 RMK SC1AC1CI2 WND ESTD SLP220 DENSITY ALT 200FT
 
CWEL - Entrance Island (Auto)
Distance from station: E 73km
Updated: 2022-10-05 17:00

 Wind from WNW
Wind: WNW 26 km/h
Temperature: 15°C
Dew Point: 13°C
Humidity: 88%
2022/10/06 00:00 CWEL 060000Z AUTO 30014KT 15/13 RMK AO1 SLP213 T01520127 57013
CYBL - Campbell River Airport
Distance from station: NNW 88km
Updated: 2022-10-05 17:00
Few Clouds
Few Clouds
 Wind from calm
Wind: Calm
Temperature: 22°C
Dew Point: 12°C
Humidity: 53%
Barometer: 1022 hPa
Clouds: Few Clouds
Visibility: 48 km
Cloud details: Few Clouds 1524 m
Few Clouds 7620 m
2022/10/06 00:00 CYBL 060000Z 00000KT 30SM FEW050 FEW250 22/12 A3018 RMK CU1CI2 CU TR SLP222 DENSITY ALT 1000FT
CWKH - Malahat Highway (Auto)
Distance from station: SE 116km
Updated: 2022-10-05 17:00

 
Temperature: 16°C
Dew Point: 12°C
Humidity: 77%
2022/10/06 00:00 CWKH 060000Z AUTO 16/12 RMK AO1 SLP214 T01610116 56004
 
CYVR - Vancouver Intl Airport
Distance from station: E 118km
Updated: 2022-10-05 17:00
Partly cloudy
Partly cloudy
 Wind from W
Wind: W 9 km/h
Temperature: 17°C
Dew Point: 15°C
Humidity: 88%
Barometer: 1021.3 hPa
Clouds: Partly cloudy
Visibility: 48 km
Cloud details: Partly cloudy 7315 m
2022/10/06 00:00 CYVR 060000Z 27005KT 30SM SCT240 17/15 A3016 RMK CI3 SLP216
CYYJ - Victoria Intl Airport
Distance from station: ESE 120km
Updated: 2022-10-05 17:00
Few Clouds
Few Clouds
 Wind from calm
Wind: Calm
Temperature: 18°C
Dew Point: 12°C
Humidity: 68%
Barometer: 1021.3 hPa
Clouds: Few Clouds
Visibility: 48 km
Cloud details: Few Clouds 7620 m
2022/10/06 00:00 CYYJ 060000Z 00000KT 30SM FEW250 18/12 A3016 RMK CI1 SLP215 DENSITY ALT 200FT
CWEB - Estevan Pt. (Auto)
Distance from station: W 129km
Updated: 2022-10-06 15:00

 Wind from N
Wind: N 52 km/h
Temperature: 15°C
Dew Point: 14°C
Humidity: 94%
2022/10/06 22:00 CWEB 062200Z AUTO 00028KT 15/14 RMK AO1 SLP232 T01450142 58005
 
CWQK - Race Rocks (Auto)
Distance from station: SE 138km
Updated: 2022-10-05 17:00

 Wind from WSW
Wind: WSW 17 km/h
Temperature: 12°C
2022/10/06 00:00 CWQK 060000Z AUTO 25009KT 12/ RMK AO1 SLP220 T0120 56003
CWAE - Whistler
Distance from station: NE 167km
Updated: 2022-10-05 17:00
Partly cloudy
Partly cloudy
 Wind from S
Wind: S 4 km/h
Temperature: 23°C
Dew Point: 8°C
Humidity: 38%
Barometer: 1022 hPa
Clouds: Partly cloudy
Visibility: 24 km
Cloud details: Few Clouds 3048 m
Partly cloudy 7010 m
2022/10/06 00:00 CWAE 060000Z 18002KT 15SM FEW100 SCT230 23/08 A3018 RMK AC1CI2 WIND ESTD SLP216 DENSITY ALT 3300FT
CYZT - Port Hardy Airport
Distance from station: NW 244km
Updated: 2022-10-05 17:00
Partly cloudy
Partly cloudy
 Wind from NNW
Wind: NNW 13 km/h
Temperature: 18°C
Dew Point: 14°C
Humidity: 78%
Barometer: 1023.4 hPa
Clouds: Partly cloudy
Visibility: 32 km
Cloud details: Few Clouds 914 m
Partly cloudy 6096 m
2022/10/06 00:00 CYZT 060000Z 34007KT 20SM FEW030 SCT200 18/14 A3022 RMK CU1CI2 SLP237 DENSITY ALT 200FT
 
CWRU - Solander Isl (Auto)
Distance from station: WNW 247km
Updated: 2022-10-05 17:00

 Wind from NW
Wind: NW 17 km/h
Temperature: 13°C
2022/10/06 00:00 CWRU 060000Z AUTO 31009KT 13/ RMK AO1 SLP234 T0134 50000